sensor_id;sensor_type;location;lat;lon;timestamp;pressure;altitude;pressure_sealevel;temperature;humidity
21706;BME280;11014;53.076;18.208;2023-05-08T00:00:01;102688.72;;;6.48;63.28
21706;BME280;11014;53.076;18.208;2023-05-08T00:02:52;102682.84;;;6.45;62.84
21706;BME280;11014;53.076;18.208;2023-05-08T00:05:21;102687.81;;;6.40;62.99
21706;BME280;11014;53.076;18.208;2023-05-08T00:07:49;102680.28;;;6.35;63.26
21706;BME280;11014;53.076;18.208;2023-05-08T00:10:19;102683.41;;;6.31;63.29
21706;BME280;11014;53.076;18.208;2023-05-08T00:12:48;102683.00;;;6.26;63.17
21706;BME280;11014;53.076;18.208;2023-05-08T00:15:16;102682.91;;;6.18;63.33
21706;BME280;11014;53.076;18.208;2023-05-08T00:17:46;102679.03;;;6.12;63.46
21706;BME280;11014;53.076;18.208;2023-05-08T00:20:15;102688.63;;;6.05;63.54
21706;BME280;11014;53.076;18.208;2023-05-08T00:22:43;102686.56;;;5.99;63.60
21706;BME280;11014;53.076;18.208;2023-05-08T00:25:12;102688.72;;;5.95;63.97
21706;BME280;11014;53.076;18.208;2023-05-08T00:27:40;102690.97;;;5.90;63.98
21706;BME280;11014;53.076;18.208;2023-05-08T00:30:09;102693.25;;;5.85;63.98
21706;BME280;11014;53.076;18.208;2023-05-08T00:32:38;102687.50;;;5.80;64.14
21706;BME280;11014;53.076;18.208;2023-05-08T00:35:07;102691.47;;;5.76;64.33
21706;BME280;11014;53.076;18.208;2023-05-08T00:37:36;102688.78;;;5.76;64.02
21706;BME280;11014;53.076;18.208;2023-05-08T00:40:09;102692.56;;;5.74;64.27
21706;BME280;11014;53.076;18.208;2023-05-08T00:42:37;102692.72;;;5.72;64.15
21706;BME280;11014;53.076;18.208;2023-05-08T00:45:07;102687.69;;;5.69;64.03
21706;BME280;11014;53.076;18.208;2023-05-08T00:47:36;102703.97;;;5.66;64.11
21706;BME280;11014;53.076;18.208;2023-05-08T00:50:05;102700.78;;;5.63;64.09
21706;BME280;11014;53.076;18.208;2023-05-08T00:52:34;102703.88;;;5.58;64.29
21706;BME280;11014;53.076;18.208;2023-05-08T00:55:04;102710.81;;;5.51;64.52
21706;BME280;11014;53.076;18.208;2023-05-08T00:57:33;102705.88;;;5.47;64.62
21706;BME280;11014;53.076;18.208;2023-05-08T01:00:03;102710.69;;;5.43;64.35
21706;BME280;11014;53.076;18.208;2023-05-08T01:02:32;102715.31;;;5.41;64.29
21706;BME280;11014;53.076;18.208;2023-05-08T01:05:02;102729.66;;;5.40;64.27
21706;BME280;11014;53.076;18.208;2023-05-08T01:07:31;102718.44;;;5.36;64.57
21706;BME280;11014;53.076;18.208;2023-05-08T01:10:00;102717.88;;;5.33;64.54
21706;BME280;11014;53.076;18.208;2023-05-08T01:23:34;102728.56;;;5.14;64.43
21706;BME280;11014;53.076;18.208;2023-05-08T01:37:50;102731.88;;;4.89;64.50
21706;BME280;11014;53.076;18.208;2023-05-08T01:40:40;102736.19;;;4.90;64.35
21706;BME280;11014;53.076;18.208;2023-05-08T01:46:18;102730.59;;;4.73;64.56
21706;BME280;11014;53.076;18.208;2023-05-08T01:49:16;102744.91;;;4.72;64.35
21706;BME280;11014;53.076;18.208;2023-05-08T01:51:55;102743.22;;;4.71;64.29
21706;BME280;11014;53.076;18.208;2023-05-08T01:54:27;102745.75;;;4.63;64.55
21706;BME280;11014;53.076;18.208;2023-05-08T01:56:58;102748.97;;;4.57;64.61
21706;BME280;11014;53.076;18.208;2023-05-08T01:59:30;102742.25;;;4.53;64.89
21706;BME280;11014;53.076;18.208;2023-05-08T02:02:00;102746.00;;;4.51;64.52
21706;BME280;11014;53.076;18.208;2023-05-08T02:04:30;102746.59;;;4.45;64.86
21706;BME280;11014;53.076;18.208;2023-05-08T02:07:01;102746.88;;;4.42;64.76
21706;BME280;11014;53.076;18.208;2023-05-08T02:09:30;102752.19;;;4.42;65.03
21706;BME280;11014;53.076;18.208;2023-05-08T02:12:00;102749.66;;;4.40;64.93
21706;BME280;11014;53.076;18.208;2023-05-08T02:14:30;102744.59;;;4.37;64.89
21706;BME280;11014;53.076;18.208;2023-05-08T02:17:00;102750.22;;;4.34;65.00
21706;BME280;11014;53.076;18.208;2023-05-08T02:19:31;102753.84;;;4.33;65.10
21706;BME280;11014;53.076;18.208;2023-05-08T02:22:02;102749.50;;;4.51;64.87
21706;BME280;11014;53.076;18.208;2023-05-08T02:24:32;102753.16;;;4.31;64.67
21706;BME280;11014;53.076;18.208;2023-05-08T02:27:01;102754.66;;;4.24;64.56
21706;BME280;11014;53.076;18.208;2023-05-08T02:29:31;102754.94;;;4.21;64.85
21706;BME280;11014;53.076;18.208;2023-05-08T02:32:01;102758.59;;;4.20;65.21
21706;BME280;11014;53.076;18.208;2023-05-08T02:34:31;102758.59;;;4.20;65.17
21706;BME280;11014;53.076;18.208;2023-05-08T02:37:01;102749.88;;;4.18;65.46
21706;BME280;11014;53.076;18.208;2023-05-08T02:39:31;102760.69;;;4.16;65.46
21706;BME280;11014;53.076;18.208;2023-05-08T02:42:03;102765.31;;;4.14;65.11
21706;BME280;11014;53.076;18.208;2023-05-08T02:44:31;102766.41;;;4.12;65.23
21706;BME280;11014;53.076;18.208;2023-05-08T02:47:17;102769.06;;;4.12;65.31
21706;BME280;11014;53.076;18.208;2023-05-08T02:49:54;102765.00;;;4.08;65.35
21706;BME280;11014;53.076;18.208;2023-05-08T02:52:31;102772.28;;;4.06;65.26
21706;BME280;11014;53.076;18.208;2023-05-08T02:55:04;102768.91;;;4.04;65.22
21706;BME280;11014;53.076;18.208;2023-05-08T03:00:30;102764.16;;;4.07;65.42
21706;BME280;11014;53.076;18.208;2023-05-08T03:03:42;102766.69;;;4.09;65.16
21706;BME280;11014;53.076;18.208;2023-05-08T03:06:13;102764.72;;;4.01;65.20
21706;BME280;11014;53.076;18.208;2023-05-08T03:08:45;102771.00;;;4.00;65.18
21706;BME280;11014;53.076;18.208;2023-05-08T03:11:19;102772.81;;;4.00;65.51
21706;BME280;11014;53.076;18.208;2023-05-08T03:13:50;102776.72;;;3.96;65.63
21706;BME280;11014;53.076;18.208;2023-05-08T03:16:24;102764.66;;;3.92;65.34
21706;BME280;11014;53.076;18.208;2023-05-08T03:19:06;102777.84;;;3.93;65.73
21706;BME280;11014;53.076;18.208;2023-05-08T03:21:35;102774.88;;;3.87;65.60
21706;BME280;11014;53.076;18.208;2023-05-08T03:24:06;102774.28;;;3.83;65.89
21706;BME280;11014;53.076;18.208;2023-05-08T03:26:36;102774.44;;;3.82;66.32
21706;BME280;11014;53.076;18.208;2023-05-08T03:29:05;102793.03;;;3.82;66.38
21706;BME280;11014;53.076;18.208;2023-05-08T03:31:35;102785.63;;;3.85;66.57
21706;BME280;11014;53.076;18.208;2023-05-08T03:34:05;102787.19;;;3.88;66.16
21706;BME280;11014;53.076;18.208;2023-05-08T03:36:34;102783.28;;;3.92;66.33
21706;BME280;11014;53.076;18.208;2023-05-08T03:39:03;102783.16;;;3.93;66.33
21706;BME280;11014;53.076;18.208;2023-05-08T03:41:33;102786.63;;;3.94;66.58
21706;BME280;11014;53.076;18.208;2023-05-08T03:44:02;102782.06;;;3.96;66.44
21706;BME280;11014;53.076;18.208;2023-05-08T03:46:31;102789.75;;;3.99;66.47
21706;BME280;11014;53.076;18.208;2023-05-08T03:49:03;102786.81;;;4.02;66.64
21706;BME280;11014;53.076;18.208;2023-05-08T03:51:32;102788.50;;;4.03;66.62
21706;BME280;11014;53.076;18.208;2023-05-08T03:54:00;102788.34;;;4.04;66.73
21706;BME280;11014;53.076;18.208;2023-05-08T03:56:29;102794.66;;;4.03;66.92
21706;BME280;11014;53.076;18.208;2023-05-08T03:59:13;102797.75;;;4.08;67.05
21706;BME280;11014;53.076;18.208;2023-05-08T04:01:53;102795.25;;;4.07;67.49
21706;BME280;11014;53.076;18.208;2023-05-08T04:04:33;102802.38;;;4.16;67.61
21706;BME280;11014;53.076;18.208;2023-05-08T04:07:18;102796.38;;;4.24;67.52
21706;BME280;11014;53.076;18.208;2023-05-08T04:09:54;102802.84;;;4.31;67.65
21706;BME280;11014;53.076;18.208;2023-05-08T04:15:37;102806.56;;;4.58;67.63
21706;BME280;11014;53.076;18.208;2023-05-08T04:18:16;102810.47;;;4.73;67.76
21706;BME280;11014;53.076;18.208;2023-05-08T04:20:47;102802.63;;;4.82;67.68
21706;BME280;11014;53.076;18.208;2023-05-08T04:23:19;102812.28;;;4.92;68.11
21706;BME280;11014;53.076;18.208;2023-05-08T04:25:51;102813.84;;;5.04;68.03
21706;BME280;11014;53.076;18.208;2023-05-08T04:28:21;102814.56;;;5.16;68.17
21706;BME280;11014;53.076;18.208;2023-05-08T04:30:50;102814.69;;;5.24;68.41
21706;BME280;11014;53.076;18.208;2023-05-08T04:33:20;102830.63;;;5.33;68.63
21706;BME280;11014;53.076;18.208;2023-05-08T04:35:49;102832.59;;;5.41;68.79
21706;BME280;11014;53.076;18.208;2023-05-08T04:38:19;102833.44;;;5.51;69.21
21706;BME280;11014;53.076;18.208;2023-05-08T04:40:48;102832.53;;;5.60;69.08
21706;BME280;11014;53.076;18.208;2023-05-08T04:43:16;102837.88;;;5.70;69.37
21706;BME280;11014;53.076;18.208;2023-05-08T04:45:45;102838.66;;;5.80;69.71
21706;BME280;11014;53.076;18.208;2023-05-08T04:48:14;102839.53;;;5.90;69.57
21706;BME280;11014;53.076;18.208;2023-05-08T04:51:01;102846.34;;;6.02;69.97
21706;BME280;11014;53.076;18.208;2023-05-08T04:53:29;102842.25;;;6.08;69.97
21706;BME280;11014;53.076;18.208;2023-05-08T04:55:58;102843.03;;;6.18;70.67
21706;BME280;11014;53.076;18.208;2023-05-08T04:58:27;102850.03;;;6.28;70.65
21706;BME280;11014;53.076;18.208;2023-05-08T05:00:56;102844.63;;;6.38;70.86
21706;BME280;11014;53.076;18.208;2023-05-08T05:03:29;102852.44;;;6.49;71.03
21706;BME280;11014;53.076;18.208;2023-05-08T05:06:00;102851.25;;;6.61;71.09
21706;BME280;11014;53.076;18.208;2023-05-08T05:08:29;102852.03;;;6.71;71.11
21706;BME280;11014;53.076;18.208;2023-05-08T05:10:58;102860.78;;;6.81;71.58
21706;BME280;11014;53.076;18.208;2023-05-08T05:13:27;102858.06;;;6.91;71.96
21706;BME280;11014;53.076;18.208;2023-05-08T05:15:58;102858.16;;;6.99;72.44
21706;BME280;11014;53.076;18.208;2023-05-08T05:18:27;102862.41;;;7.09;72.29
21706;BME280;11014;53.076;18.208;2023-05-08T05:20:59;102858.81;;;7.18;72.73
21706;BME280;11014;53.076;18.208;2023-05-08T05:23:30;102860.56;;;7.28;73.20
21706;BME280;11014;53.076;18.208;2023-05-08T05:25:58;102857.09;;;7.35;73.38
21706;BME280;11014;53.076;18.208;2023-05-08T05:28:29;102864.06;;;7.46;73.51
21706;BME280;11014;53.076;18.208;2023-05-08T05:30:57;102866.47;;;7.57;73.51
21706;BME280;11014;53.076;18.208;2023-05-08T05:33:27;102860.03;;;7.67;73.81
21706;BME280;11014;53.076;18.208;2023-05-08T05:35:55;102862.28;;;7.80;74.40
21706;BME280;11014;53.076;18.208;2023-05-08T05:38:24;102861.53;;;7.96;74.65
21706;BME280;11014;53.076;18.208;2023-05-08T05:40:53;102863.63;;;8.10;74.81
21706;BME280;11014;53.076;18.208;2023-05-08T05:43:22;102866.53;;;8.24;74.81
21706;BME280;11014;53.076;18.208;2023-05-08T05:45:50;102868.66;;;8.39;74.51
21706;BME280;11014;53.076;18.208;2023-05-08T05:48:19;102859.97;;;8.53;75.10
21706;BME280;11014;53.076;18.208;2023-05-08T05:50:49;102863.72;;;8.68;75.31
21706;BME280;11014;53.076;18.208;2023-05-08T05:53:17;102871.13;;;8.82;75.34
21706;BME280;11014;53.076;18.208;2023-05-08T05:55:46;102875.66;;;8.98;75.43
21706;BME280;11014;53.076;18.208;2023-05-08T05:58:15;102874.00;;;9.13;75.30
21706;BME280;11014;53.076;18.208;2023-05-08T06:00:45;102875.19;;;9.26;75.42
21706;BME280;11014;53.076;18.208;2023-05-08T06:03:14;102877.19;;;9.40;75.46
21706;BME280;11014;53.076;18.208;2023-05-08T06:05:45;102875.88;;;9.52;75.40
21706;BME280;11014;53.076;18.208;2023-05-08T06:08:14;102884.88;;;9.68;75.48
21706;BME280;11014;53.076;18.208;2023-05-08T06:10:45;102877.84;;;9.83;75.35
21706;BME280;11014;53.076;18.208;2023-05-08T06:13:13;102878.13;;;9.96;75.41
21706;BME280;11014;53.076;18.208;2023-05-08T06:15:42;102883.81;;;10.09;75.36
21706;BME280;11014;53.076;18.208;2023-05-08T06:18:10;102887.50;;;10.24;75.50
21706;BME280;11014;53.076;18.208;2023-05-08T06:20:39;102889.44;;;10.38;75.28
21706;BME280;11014;53.076;18.208;2023-05-08T06:23:08;102884.00;;;10.54;75.15
21706;BME280;11014;53.076;18.208;2023-05-08T06:25:36;102889.66;;;10.67;75.19
21706;BME280;11014;53.076;18.208;2023-05-08T06:28:05;102888.22;;;10.80;74.82
21706;BME280;11014;53.076;18.208;2023-05-08T06:30:35;102892.19;;;10.92;74.42
21706;BME280;11014;53.076;18.208;2023-05-08T06:33:04;102887.72;;;11.07;74.05
21706;BME280;11014;53.076;18.208;2023-05-08T06:35:32;102888.63;;;11.22;73.86
21706;BME280;11014;53.076;18.208;2023-05-08T06:38:01;102882.47;;;11.36;73.57
21706;BME280;11014;53.076;18.208;2023-05-08T06:40:29;102894.09;;;11.51;72.73
21706;BME280;11014;53.076;18.208;2023-05-08T06:42:58;102887.28;;;11.63;72.07
21706;BME280;11014;53.076;18.208;2023-05-08T06:45:26;102884.81;;;11.76;71.35
21706;BME280;11014;53.076;18.208;2023-05-08T06:47:55;102879.63;;;11.89;70.60
21706;BME280;11014;53.076;18.208;2023-05-08T06:50:23;102879.53;;;11.98;70.23
21706;BME280;11014;53.076;18.208;2023-05-08T06:52:53;102880.28;;;12.06;69.05
21706;BME280;11014;53.076;18.208;2023-05-08T06:55:30;102876.50;;;12.15;67.91
21706;BME280;11014;53.076;18.208;2023-05-08T06:57:58;102872.66;;;12.24;67.40
21706;BME280;11014;53.076;18.208;2023-05-08T07:00:27;102885.13;;;12.40;65.19
21706;BME280;11014;53.076;18.208;2023-05-08T07:03:01;102878.22;;;12.52;64.69
21706;BME280;11014;53.076;18.208;2023-05-08T07:05:29;102879.78;;;12.61;64.43
21706;BME280;11014;53.076;18.208;2023-05-08T07:07:58;102887.00;;;12.75;63.60
21706;BME280;11014;53.076;18.208;2023-05-08T07:10:26;102885.69;;;12.86;62.49
21706;BME280;11014;53.076;18.208;2023-05-08T07:12:55;102879.31;;;12.93;61.86
21706;BME280;11014;53.076;18.208;2023-05-08T07:15:23;102887.13;;;13.03;60.87
21706;BME280;11014;53.076;18.208;2023-05-08T07:17:54;102878.72;;;13.13;60.17
21706;BME280;11014;53.076;18.208;2023-05-08T07:20:22;102881.13;;;13.22;59.98
21706;BME280;11014;53.076;18.208;2023-05-08T07:22:51;102875.16;;;13.33;58.96
21706;BME280;11014;53.076;18.208;2023-05-08T07:25:20;102876.91;;;13.41;57.79
21706;BME280;11014;53.076;18.208;2023-05-08T07:27:49;102865.78;;;13.50;56.55
21706;BME280;11014;53.076;18.208;2023-05-08T07:30:18;102876.88;;;13.62;56.44
21706;BME280;11014;53.076;18.208;2023-05-08T07:32:46;102874.03;;;13.70;55.34
21706;BME280;11014;53.076;18.208;2023-05-08T07:35:15;102874.28;;;13.75;54.48
21706;BME280;11014;53.076;18.208;2023-05-08T07:37:47;102872.94;;;13.92;54.04
21706;BME280;11014;53.076;18.208;2023-05-08T07:40:16;102871.34;;;14.04;53.79
21706;BME280;11014;53.076;18.208;2023-05-08T07:42:44;102868.91;;;14.16;53.63
21706;BME280;11014;53.076;18.208;2023-05-08T07:45:13;102874.38;;;14.29;53.88
21706;BME280;11014;53.076;18.208;2023-05-08T07:47:56;102871.59;;;14.44;52.07
21706;BME280;11014;53.076;18.208;2023-05-08T07:50:25;102878.28;;;14.48;51.74
21706;BME280;11014;53.076;18.208;2023-05-08T07:52:54;102875.19;;;14.57;51.94
21706;BME280;11014;53.076;18.208;2023-05-08T07:55:22;102865.47;;;14.69;51.52
21706;BME280;11014;53.076;18.208;2023-05-08T07:57:51;102868.38;;;14.81;51.39
21706;BME280;11014;53.076;18.208;2023-05-08T08:00:19;102867.78;;;14.92;51.10
21706;BME280;11014;53.076;18.208;2023-05-08T08:02:48;102872.59;;;15.03;51.27
21706;BME280;11014;53.076;18.208;2023-05-08T08:05:17;102865.75;;;15.14;51.79
21706;BME280;11014;53.076;18.208;2023-05-08T08:07:45;102870.78;;;15.23;50.17
21706;BME280;11014;53.076;18.208;2023-05-08T08:10:14;102875.16;;;15.31;48.85
21706;BME280;11014;53.076;18.208;2023-05-08T08:12:42;102871.41;;;15.38;49.01
21706;BME280;11014;53.076;18.208;2023-05-08T08:15:11;102871.66;;;15.50;49.37
21706;BME280;11014;53.076;18.208;2023-05-08T08:17:39;102874.75;;;15.60;47.08
21706;BME280;11014;53.076;18.208;2023-05-08T08:20:08;102874.34;;;15.63;47.11
21706;BME280;11014;53.076;18.208;2023-05-08T08:22:37;102866.22;;;15.70;46.79
21706;BME280;11014;53.076;18.208;2023-05-08T08:25:06;102861.84;;;15.75;45.74
21706;BME280;11014;53.076;18.208;2023-05-08T08:27:35;102862.69;;;15.76;45.52
21706;BME280;11014;53.076;18.208;2023-05-08T08:30:04;102865.16;;;15.84;46.96
21706;BME280;11014;53.076;18.208;2023-05-08T08:32:44;102859.47;;;15.98;46.76
21706;BME280;11014;53.076;18.208;2023-05-08T08:35:14;102857.16;;;16.15;45.97
21706;BME280;11014;53.076;18.208;2023-05-08T08:37:44;102862.34;;;16.30;45.88
21706;BME280;11014;53.076;18.208;2023-05-08T08:40:12;102852.50;;;16.42;46.47
21706;BME280;11014;53.076;18.208;2023-05-08T08:42:40;102847.88;;;16.55;45.11
21706;BME280;11014;53.076;18.208;2023-05-08T08:45:09;102855.09;;;16.68;44.39
21706;BME280;11014;53.076;18.208;2023-05-08T08:47:38;102845.41;;;16.85;45.23
21706;BME280;11014;53.076;18.208;2023-05-08T08:50:11;102847.38;;;17.28;44.47
21706;BME280;11014;53.076;18.208;2023-05-08T08:52:52;102849.09;;;17.22;43.72
21706;BME280;11014;53.076;18.208;2023-05-08T08:55:24;102847.53;;;17.33;44.41
21706;BME280;11014;53.076;18.208;2023-05-08T08:57:59;102846.00;;;17.43;42.40
21706;BME280;11014;53.076;18.208;2023-05-08T09:00:31;102828.38;;;17.52;42.88
21706;BME280;11014;53.076;18.208;2023-05-08T09:03:00;102842.53;;;17.61;41.37
21706;BME280;11014;53.076;18.208;2023-05-08T09:05:29;102843.25;;;17.74;42.26
21706;BME280;11014;53.076;18.208;2023-05-08T09:07:58;102839.34;;;17.89;41.45
21706;BME280;11014;53.076;18.208;2023-05-08T09:10:28;102840.31;;;17.94;40.68
21706;BME280;11014;53.076;18.208;2023-05-08T09:12:56;102841.31;;;18.00;40.78
21706;BME280;11014;53.076;18.208;2023-05-08T09:15:26;102843.34;;;18.04;40.70
21706;BME280;11014;53.076;18.208;2023-05-08T09:17:54;102842.88;;;18.07;39.41
21706;BME280;11014;53.076;18.208;2023-05-08T09:20:23;102842.06;;;18.07;38.74
21706;BME280;11014;53.076;18.208;2023-05-08T09:22:53;102833.69;;;18.08;39.64
21706;BME280;11014;53.076;18.208;2023-05-08T09:25:22;102834.66;;;18.14;38.91
21706;BME280;11014;53.076;18.208;2023-05-08T09:27:50;102830.28;;;18.13;39.09
21706;BME280;11014;53.076;18.208;2023-05-08T09:30:19;102824.38;;;18.16;37.64
21706;BME280;11014;53.076;18.208;2023-05-08T09:32:47;102828.16;;;18.15;38.48
21706;BME280;11014;53.076;18.208;2023-05-08T09:35:17;102828.97;;;18.15;39.71
21706;BME280;11014;53.076;18.208;2023-05-08T09:37:45;102832.22;;;18.24;38.94
21706;BME280;11014;53.076;18.208;2023-05-08T09:40:19;102831.53;;;18.28;38.59
21706;BME280;11014;53.076;18.208;2023-05-08T09:42:49;102829.78;;;18.34;40.62
21706;BME280;11014;53.076;18.208;2023-05-08T09:45:29;102821.03;;;18.50;38.84
21706;BME280;11014;53.076;18.208;2023-05-08T09:47:59;102821.28;;;18.49;37.12
21706;BME280;11014;53.076;18.208;2023-05-08T09:50:28;102827.97;;;18.46;37.57
21706;BME280;11014;53.076;18.208;2023-05-08T09:52:56;102823.75;;;18.50;36.34
21706;BME280;11014;53.076;18.208;2023-05-08T09:55:25;102816.34;;;18.57;37.77
21706;BME280;11014;53.076;18.208;2023-05-08T09:57:58;102810.25;;;18.73;38.51
21706;BME280;11014;53.076;18.208;2023-05-08T10:00:28;102809.97;;;18.93;38.13
21706;BME280;11014;53.076;18.208;2023-05-08T10:03:01;102814.13;;;19.19;37.65
21706;BME280;11014;53.076;18.208;2023-05-08T10:05:32;102814.75;;;19.32;37.10
21706;BME280;11014;53.076;18.208;2023-05-08T10:08:21;102814.56;;;19.57;36.65
21706;BME280;11014;53.076;18.208;2023-05-08T10:10:50;102822.72;;;19.57;37.35
21706;BME280;11014;53.076;18.208;2023-05-08T10:13:19;102814.31;;;19.70;37.65
21706;BME280;11014;53.076;18.208;2023-05-08T10:15:50;102811.00;;;19.80;37.57
21706;BME280;11014;53.076;18.208;2023-05-08T10:18:23;102808.72;;;19.88;37.03
21706;BME280;11014;53.076;18.208;2023-05-08T10:20:55;102809.88;;;19.92;37.32
21706;BME280;11014;53.076;18.208;2023-05-08T10:23:26;102808.34;;;19.96;36.17
21706;BME280;11014;53.076;18.208;2023-05-08T10:25:55;102807.78;;;19.94;36.15
21706;BME280;11014;53.076;18.208;2023-05-08T10:28:41;102804.91;;;20.01;35.46
21706;BME280;11014;53.076;18.208;2023-05-08T10:31:11;102794.25;;;19.99;35.27
21706;BME280;11014;53.076;18.208;2023-05-08T10:33:44;102796.72;;;20.01;35.20
21706;BME280;11014;53.076;18.208;2023-05-08T10:36:14;102797.06;;;20.04;33.66
21706;BME280;11014;53.076;18.208;2023-05-08T10:38:43;102793.25;;;20.05;34.00
21706;BME280;11014;53.076;18.208;2023-05-08T10:41:13;102794.91;;;20.06;34.79
21706;BME280;11014;53.076;18.208;2023-05-08T10:43:41;102797.28;;;20.15;37.31
21706;BME280;11014;53.076;18.208;2023-05-08T10:48:55;102796.28;;;20.60;36.14
21706;BME280;11014;53.076;18.208;2023-05-08T10:54:41;102785.81;;;21.14;34.92
21706;BME280;11014;53.076;18.208;2023-05-08T10:57:15;102784.22;;;21.18;34.97
21706;BME280;11014;53.076;18.208;2023-05-08T10:59:45;102781.56;;;21.23;35.89
21706;BME280;11014;53.076;18.208;2023-05-08T11:02:14;102779.09;;;21.21;32.69
21706;BME280;11014;53.076;18.208;2023-05-08T11:04:43;102776.50;;;21.15;30.88
21706;BME280;11014;53.076;18.208;2023-05-08T11:07:12;102779.44;;;21.08;31.32
21706;BME280;11014;53.076;18.208;2023-05-08T11:12:20;102769.06;;;21.10;32.20
21706;BME280;11014;53.076;18.208;2023-05-08T11:15:06;102758.59;;;21.41;32.82
21706;BME280;11014;53.076;18.208;2023-05-08T11:17:35;102756.91;;;21.56;33.41
21706;BME280;11014;53.076;18.208;2023-05-08T11:20:04;102759.66;;;21.78;32.12
21706;BME280;11014;53.076;18.208;2023-05-08T11:22:34;102753.03;;;21.91;31.07
21706;BME280;11014;53.076;18.208;2023-05-08T11:25:10;102757.75;;;21.95;33.05
21706;BME280;11014;53.076;18.208;2023-05-08T11:33:10;102744.81;;;22.12;29.59
21706;BME280;11014;53.076;18.208;2023-05-08T11:35:57;102753.69;;;22.24;31.89
21706;BME280;11014;53.076;18.208;2023-05-08T11:38:31;102752.78;;;22.40;31.48
21706;BME280;11014;53.076;18.208;2023-05-08T11:46:05;102737.72;;;22.65;29.93
21706;BME280;11014;53.076;18.208;2023-05-08T11:48:36;102750.00;;;22.62;29.22
21706;BME280;11014;53.076;18.208;2023-05-08T11:51:04;102745.84;;;22.60;29.57
21706;BME280;11014;53.076;18.208;2023-05-08T11:53:34;102742.03;;;22.61;30.62
21706;BME280;11014;53.076;18.208;2023-05-08T11:56:03;102746.44;;;22.62;29.27
21706;BME280;11014;53.076;18.208;2023-05-08T11:58:32;102744.72;;;22.56;29.93
21706;BME280;11014;53.076;18.208;2023-05-08T12:01:00;102747.97;;;22.53;29.14
21706;BME280;11014;53.076;18.208;2023-05-08T12:03:29;102741.13;;;22.50;29.05
21706;BME280;11014;53.076;18.208;2023-05-08T12:05:58;102739.75;;;22.53;29.38
21706;BME280;11014;53.076;18.208;2023-05-08T12:08:27;102738.72;;;22.59;30.00
21706;BME280;11014;53.076;18.208;2023-05-08T12:10:56;102729.50;;;22.65;29.67
21706;BME280;11014;53.076;18.208;2023-05-08T12:13:26;102731.06;;;22.61;28.39
21706;BME280;11014;53.076;18.208;2023-05-08T12:15:57;102720.13;;;22.61;29.88
21706;BME280;11014;53.076;18.208;2023-05-08T12:18:27;102718.34;;;23.08;28.81
21706;BME280;11014;53.076;18.208;2023-05-08T12:21:00;102716.06;;;23.94;28.79
21706;BME280;11014;53.076;18.208;2023-05-08T12:23:31;102718.34;;;24.07;27.95
21706;BME280;11014;53.076;18.208;2023-05-08T12:26:00;102714.97;;;23.85;28.32
21706;BME280;11014;53.076;18.208;2023-05-08T12:28:32;102716.03;;;23.79;29.04
21706;BME280;11014;53.076;18.208;2023-05-08T12:31:01;102711.97;;;23.96;28.56
21706;BME280;11014;53.076;18.208;2023-05-08T12:33:30;102714.47;;;24.08;29.27
21706;BME280;11014;53.076;18.208;2023-05-08T12:36:00;102709.38;;;25.12;27.28
21706;BME280;11014;53.076;18.208;2023-05-08T12:38:29;102712.94;;;26.85;25.37
21706;BME280;11014;53.076;18.208;2023-05-08T12:45:36;102700.75;;;30.87;21.83
21706;BME280;11014;53.076;18.208;2023-05-08T12:48:08;102692.19;;;31.93;21.24
21706;BME280;11014;53.076;18.208;2023-05-08T12:50:43;102686.38;;;33.01;19.80
21706;BME280;11014;53.076;18.208;2023-05-08T12:53:12;102678.75;;;33.65;19.37
21706;BME280;11014;53.076;18.208;2023-05-08T12:58:23;102672.94;;;34.20;18.07
21706;BME280;11014;53.076;18.208;2023-05-08T13:00:53;102672.22;;;34.64;17.46
21706;BME280;11014;53.076;18.208;2023-05-08T13:03:31;102670.41;;;34.27;17.07
21706;BME280;11014;53.076;18.208;2023-05-08T13:06:01;102664.00;;;32.80;17.37
21706;BME280;11014;53.076;18.208;2023-05-08T13:08:31;102662.25;;;31.81;18.62
21706;BME280;11014;53.076;18.208;2023-05-08T13:11:02;102673.06;;;32.43;19.17
21706;BME280;11014;53.076;18.208;2023-05-08T13:13:33;102662.25;;;33.51;19.00
21706;BME280;11014;53.076;18.208;2023-05-08T13:16:06;102654.50;;;34.60;17.82
21706;BME280;11014;53.076;18.208;2023-05-08T13:18:34;102657.75;;;35.07;17.06
21706;BME280;11014;53.076;18.208;2023-05-08T13:21:06;102658.25;;;34.64;17.84
21706;BME280;11014;53.076;18.208;2023-05-08T13:23:34;102655.38;;;33.49;17.80
21706;BME280;11014;53.076;18.208;2023-05-08T13:26:03;102645.44;;;32.93;17.90
21706;BME280;11014;53.076;18.208;2023-05-08T13:28:31;102650.47;;;31.93;17.76
21706;BME280;11014;53.076;18.208;2023-05-08T13:31:01;102650.44;;;31.10;19.07
21706;BME280;11014;53.076;18.208;2023-05-08T13:33:29;102642.88;;;31.02;17.88
21706;BME280;11014;53.076;18.208;2023-05-08T13:35:58;102644.59;;;31.77;20.05
21706;BME280;11014;53.076;18.208;2023-05-08T13:38:26;102635.97;;;32.04;18.49
21706;BME280;11014;53.076;18.208;2023-05-08T13:40:56;102641.16;;;31.97;17.93
21706;BME280;11014;53.076;18.208;2023-05-08T13:43:25;102637.53;;;32.65;19.30
21706;BME280;11014;53.076;18.208;2023-05-08T13:45:57;102638.44;;;33.62;17.84
21706;BME280;11014;53.076;18.208;2023-05-08T13:48:28;102614.59;;;34.27;16.91
21706;BME280;11014;53.076;18.208;2023-05-08T13:52:24;102613.78;;;34.06;16.50
21706;BME280;11014;53.076;18.208;2023-05-08T13:55:39;102623.44;;;33.17;17.57
21706;BME280;11014;53.076;18.208;2023-05-08T14:03:33;102612.47;;;33.41;17.22
21706;BME280;11014;53.076;18.208;2023-05-08T14:06:33;102622.75;;;33.20;16.87
21706;BME280;11014;53.076;18.208;2023-05-08T14:09:27;102613.09;;;32.79;18.03